Time;durP1;ratioP1;P1;durP2;ratioP2;P2;SDS_P1;SDS_P2;PMS_P1;PMS_P2;Temp;Humidity;BMP_temperature;BMP_pressure;BME280_temperature;BME280_humidity;BME280_pressure;Samples;Min_cycle;Max_cycle;Signal;HPM_P1;HPM_P2
2023/05/10 00:01:24;;;;;;;2.63;2.43;;;12.00;92.40;;;;;;5055256;28;20284;-88
2023/05/10 00:03:50;;;;;;;3.03;2.67;;;12.00;92.80;;;;;;5063794;28;20720;-87
2023/05/10 00:06:15;;;;;;;2.63;1.87;;;12.00;92.70;;;;;;5071661;28;20191;-89
2023/05/10 00:08:41;;;;;;;2.20;2.00;;;12.00;92.90;;;;;;5063218;28;20202;-90
2023/05/10 00:11:06;;;;;;;3.33;1.70;;;11.90;92.80;;;;;;5061179;28;20249;-89
2023/05/10 00:13:32;;;;;;;2.63;2.50;;;11.90;92.80;;;;;;5063490;28;20541;-89
2023/05/10 00:15:57;;;;;;;1.90;1.80;;;11.90;92.80;;;;;;5063288;28;20187;-88
2023/05/10 00:18:23;;;;;;;2.33;2.13;;;11.90;92.80;;;;;;5059906;28;20179;-89
2023/05/10 00:20:48;;;;;;;2.43;2.23;;;11.90;93.10;;;;;;5055399;28;20213;-89
2023/05/10 00:23:14;;;;;;;1.90;1.80;;;11.80;93.20;;;;;;5066512;28;20669;-88
2023/05/10 00:25:40;;;;;;;2.30;2.10;;;11.80;93.20;;;;;;5056555;28;20190;-90
2023/05/10 00:28:05;;;;;;;1.50;1.40;;;11.80;93.40;;;;;;5073076;28;20199;-89
2023/05/10 00:30:31;;;;;;;4.00;1.87;;;11.70;93.50;;;;;;5068695;28;20576;-89
2023/05/10 00:32:56;;;;;;;1.50;1.37;;;11.70;93.70;;;;;;5071765;28;20195;-89
2023/05/10 00:35:22;;;;;;;3.63;2.30;;;11.70;93.70;;;;;;5059080;28;20194;-89
2023/05/10 00:37:48;;;;;;;2.23;1.70;;;11.60;93.90;;;;;;5054443;28;20179;-88
2023/05/10 00:40:13;;;;;;;2.70;2.07;;;11.60;93.90;;;;;;5056860;28;20217;-89
2023/05/10 00:42:39;;;;;;;6.73;2.10;;;11.60;94.00;;;;;;5062542;28;20241;-89
2023/05/10 00:45:05;;;;;;;2.93;2.57;;;11.60;94.00;;;;;;5070780;28;20239;-89
2023/05/10 00:47:31;;;;;;;3.23;2.90;;;11.60;94.00;;;;;;5065658;28;20175;-90
2023/05/10 00:49:57;;;;;;;1.83;1.73;;;11.60;94.10;;;;;;5063742;28;20417;-89
2023/05/10 00:52:23;;;;;;;1.73;1.63;;;11.50;94.00;;;;;;5072361;28;20526;-90
2023/05/10 00:54:51;;;;;;;2.07;1.80;;;11.60;94.00;;;;;;5070597;28;20238;-89
2023/05/10 00:57:17;;;;;;;1.53;1.50;;;11.60;94.10;;;;;;5067557;28;20421;-89
2023/05/10 00:59:42;;;;;;;1.93;1.83;;;11.60;94.10;;;;;;5054439;28;20791;-89
2023/05/10 01:02:08;;;;;;;2.87;1.50;;;11.50;94.20;;;;;;5053611;28;20248;-89
2023/05/10 01:04:35;;;;;;;1.47;1.37;;;11.50;94.20;;;;;;5068366;28;20191;-89
2023/05/10 01:07:01;;;;;;;2.43;2.30;;;11.50;94.20;;;;;;5070938;28;20437;-89
2023/05/10 01:09:27;;;;;;;4.00;1.70;;;11.50;94.30;;;;;;5066295;28;20421;-88
2023/05/10 01:11:53;;;;;;;2.60;1.50;;;11.50;94.40;;;;;;5070317;28;20518;-89
2023/05/10 01:14:19;;;;;;;1.47;1.30;;;11.50;94.50;;;;;;5072394;28;20449;-89
2023/05/10 01:16:46;;;;;;;5.03;3.33;;;11.40;94.60;;;;;;5053923;28;20486;-89
2023/05/10 01:19:27;;;;;;;2.70;2.50;;;11.40;94.70;;;;;;5071981;28;20421;-89
2023/05/10 01:22:44;;;;;;;6.77;2.17;;;11.40;94.70;;;;;;5062061;28;20451;-88
2023/05/10 01:25:50;;;;;;;10.17;4.07;;;11.30;95.00;;;;;;5058556;28;20417;-89
2023/05/10 01:28:48;;;;;;;3.60;3.40;;;11.30;95.00;;;;;;5048583;28;20535;-88
2023/05/10 01:31:22;;;;;;;1.20;1.10;;;11.30;95.10;;;;;;5050983;28;20838;-89
2023/05/10 01:33:58;;;;;;;4.40;2.60;;;11.20;95.20;;;;;;5061809;28;20467;-89
2023/05/10 01:36:30;;;;;;;1.43;1.17;;;11.20;95.30;;;;;;5071901;28;20430;-89
2023/05/10 01:39:06;;;;;;;1.70;1.60;;;11.20;95.40;;;;;;5045778;28;20409;-89
2023/05/10 01:41:57;;;;;;;1.60;1.50;;;11.20;95.50;;;;;;5064399;28;20818;-90
2023/05/10 01:44:42;;;;;;;2.17;2.00;;;11.20;95.60;;;;;;5071524;28;20424;-89
2023/05/10 01:47:12;;;;;;;20.73;2.80;;;11.10;95.70;;;;;;5056884;28;20421;-88
2023/05/10 01:49:43;;;;;;;1.70;1.60;;;11.10;95.80;;;;;;5063952;28;20417;-88
2023/05/10 01:52:12;;;;;;;2.33;2.03;;;11.10;95.90;;;;;;5054416;28;20497;-87
2023/05/10 01:54:45;;;;;;;4.77;2.03;;;11.00;96.00;;;;;;5060725;28;20787;-88
2023/05/10 01:57:13;;;;;;;2.30;2.10;;;11.00;96.00;;;;;;5057789;28;20814;-90
2023/05/10 01:59:42;;;;;;;13.73;2.37;;;11.00;96.10;;;;;;5058726;28;20991;-88
2023/05/10 02:02:11;;;;;;;2.80;2.10;;;11.00;96.10;;;;;;5058339;28;20481;-87
2023/05/10 02:04:39;;;;;;;2.87;2.67;;;11.00;96.10;;;;;;5069467;28;20480;-88
2023/05/10 02:07:06;;;;;;;1.83;1.67;;;10.90;96.20;;;;;;5062542;28;20805;-88
2023/05/10 02:09:33;;;;;;;3.00;2.63;;;10.90;96.40;;;;;;5061254;28;20429;-87
2023/05/10 02:12:02;;;;;;;2.20;2.07;;;10.90;96.40;;;;;;5053396;28;20714;-88
2023/05/10 02:14:30;;;;;;;1.77;1.40;;;10.90;96.40;;;;;;5070154;28;20490;-88
2023/05/10 02:16:58;;;;;;;2.00;1.70;;;10.90;96.50;;;;;;5061070;28;20409;-88
2023/05/10 02:19:24;;;;;;;1.73;1.63;;;10.80;96.60;;;;;;5070877;28;20791;-89
2023/05/10 02:21:51;;;;;;;2.47;2.30;;;10.80;96.70;;;;;;5053578;28;20473;-88
2023/05/10 02:24:17;;;;;;;2.80;1.87;;;10.80;96.80;;;;;;5052906;28;20757;-88
2023/05/10 02:26:45;;;;;;;2.33;2.13;;;10.70;96.80;;;;;;5052825;28;20458;-88
2023/05/10 02:29:12;;;;;;;3.57;1.77;;;10.70;96.80;;;;;;5052632;28;20425;-89
2023/05/10 02:31:38;;;;;;;3.17;2.37;;;10.70;96.90;;;;;;5060433;28;20469;-88
2023/05/10 02:34:05;;;;;;;3.97;3.20;;;10.70;96.90;;;;;;5070547;28;20421;-88
2023/05/10 02:36:31;;;;;;;2.10;1.83;;;10.70;97.00;;;;;;5052399;28;20421;-89
2023/05/10 02:38:58;;;;;;;1.77;1.63;;;10.70;97.10;;;;;;5052993;28;20496;-88
2023/05/10 02:41:26;;;;;;;1.67;1.40;;;10.60;97.00;;;;;;5056479;28;20528;-88
2023/05/10 02:43:55;;;;;;;2.70;2.23;;;10.60;97.10;;;;;;5052194;28;20437;-89
2023/05/10 02:46:21;;;;;;;1.87;1.77;;;10.60;97.20;;;;;;5057336;28;20496;-88
2023/05/10 02:48:46;;;;;;;2.97;1.73;;;10.50;97.30;;;;;;5060233;28;20960;-88
2023/05/10 02:51:13;;;;;;;4.50;2.20;;;10.50;97.30;;;;;;5062623;28;20221;-88
2023/05/10 02:53:43;;;;;;;2.33;2.13;;;10.50;97.30;;;;;;5070033;28;20183;-88
2023/05/10 02:56:19;;;;;;;1.27;1.20;;;10.50;97.30;;;;;;5060343;28;20416;-87
2023/05/10 02:58:46;;;;;;;2.07;1.93;;;10.50;97.30;;;;;;5070079;28;20483;-88
2023/05/10 03:01:11;;;;;;;3.13;2.93;;;10.50;97.30;;;;;;5060253;28;20506;-87
2023/05/10 03:03:37;;;;;;;1.77;1.67;;;10.40;97.30;;;;;;5068941;28;20928;-88
2023/05/10 03:06:02;;;;;;;3.80;1.97;;;10.40;97.30;;;;;;5061217;28;20179;-88
2023/05/10 03:08:29;;;;;;;2.07;1.63;;;10.40;97.30;;;;;;5064688;28;20179;-88
2023/05/10 03:11:09;;;;;;;3.30;2.07;;;10.40;97.30;;;;;;5069741;28;20205;-88
2023/05/10 03:13:57;;;;;;;4.63;2.90;;;10.40;97.30;;;;;;5060244;28;20417;-88
2023/05/10 03:16:29;;;;;;;2.40;1.87;;;10.40;97.30;;;;;;5055610;28;21034;-90
2023/05/10 03:19:01;;;;;;;1.73;1.70;;;10.40;97.30;;;;;;5052215;28;20426;-89
2023/05/10 03:21:29;;;;;;;4.73;2.57;;;10.30;97.30;;;;;;5059633;28;20581;-88
2023/05/10 03:24:06;;;;;;;3.40;2.30;;;10.30;97.30;;;;;;5059793;28;20430;-89
2023/05/10 03:26:33;;;;;;;1.80;1.70;;;10.30;97.30;;;;;;5066818;28;20476;-88
2023/05/10 03:28:59;;;;;;;2.23;2.07;;;10.30;97.30;;;;;;5062877;28;20951;-87
2023/05/10 03:31:25;;;;;;;2.17;2.00;;;10.30;97.30;;;;;;5068504;28;20995;-88
2023/05/10 03:33:52;;;;;;;2.67;2.47;;;10.30;97.30;;;;;;5073727;28;20447;-88
2023/05/10 03:36:18;;;;;;;1.93;1.73;;;10.30;97.30;;;;;;5063785;28;20183;-87
2023/05/10 03:38:43;;;;;;;3.93;3.27;;;10.30;97.30;;;;;;5073660;28;20421;-89
2023/05/10 03:41:09;;;;;;;1.63;1.53;;;10.30;97.30;;;;;;5071271;28;20427;-87
2023/05/10 03:43:34;;;;;;;2.77;2.30;;;10.20;97.30;;;;;;5060556;28;20758;-88
2023/05/10 03:46:04;;;;;;;3.10;2.23;;;10.20;97.30;;;;;;5047491;28;20183;-88
2023/05/10 03:48:30;;;;;;;1.57;1.47;;;10.20;97.30;;;;;;5063894;28;20187;-88
2023/05/10 03:50:55;;;;;;;7.20;3.67;;;10.20;97.30;;;;;;5071523;28;20847;-86
2023/05/10 03:53:21;;;;;;;1.60;1.50;;;10.20;97.30;;;;;;5073987;28;20799;-87
2023/05/10 03:55:46;;;;;;;1.80;1.70;;;10.30;97.30;;;;;;5055704;28;20224;-89
2023/05/10 03:58:12;;;;;;;4.00;2.27;;;10.30;97.30;;;;;;5057369;28;20187;-87
2023/05/10 04:00:43;;;;;;;1.83;1.40;;;10.30;97.30;;;;;;5058726;28;20180;-87
2023/05/10 04:03:09;;;;;;;2.37;2.17;;;10.40;97.30;;;;;;5055665;28;20203;-88
2023/05/10 04:05:35;;;;;;;2.93;2.43;;;10.40;97.30;;;;;;5056040;28;20421;-85
2023/05/10 04:08:00;;;;;;;6.10;2.17;;;10.40;97.30;;;;;;5055310;28;20440;-88
2023/05/10 04:10:26;;;;;;;2.70;2.03;;;10.40;97.30;;;;;;5073680;28;20175;-88
2023/05/10 04:12:51;;;;;;;1.97;1.47;;;10.40;97.30;;;;;;5064965;28;20580;-89
2023/05/10 04:15:17;;;;;;;2.83;1.50;;;10.50;97.30;;;;;;5072186;28;20172;-87
2023/05/10 04:17:42;;;;;;;2.97;2.07;;;10.50;97.30;;;;;;5071810;28;20661;-88
2023/05/10 04:20:08;;;;;;;3.10;2.23;;;10.50;97.30;;;;;;5073456;28;20577;-88
2023/05/10 04:22:34;;;;;;;1.70;1.60;;;10.60;97.30;;;;;;5063414;28;20195;-87
2023/05/10 04:24:59;;;;;;;5.03;2.63;;;10.60;97.30;;;;;;5073154;28;20913;-87
2023/05/10 04:27:25;;;;;;;1.97;1.50;;;10.60;97.30;;;;;;5073579;28;20183;-88
2023/05/10 04:29:50;;;;;;;3.97;2.20;;;10.70;97.30;;;;;;5071594;28;20705;-88
2023/05/10 04:32:17;;;;;;;2.63;2.43;;;10.70;97.30;;;;;;5054974;28;20206;-88
2023/05/10 04:34:43;;;;;;;2.33;1.90;;;10.70;97.30;;;;;;5055024;28;20194;-88
2023/05/10 04:37:08;;;;;;;2.90;1.70;;;10.80;97.30;;;;;;5054427;28;20927;-89
2023/05/10 04:39:34;;;;;;;2.37;2.17;;;10.80;97.30;;;;;;5070414;28;20617;-89
2023/05/10 04:42:00;;;;;;;1.80;1.60;;;10.90;97.30;;;;;;5063112;28;20231;-88
2023/05/10 04:44:26;;;;;;;3.43;1.50;;;10.90;97.30;;;;;;5056956;28;20459;-88
2023/05/10 04:46:51;;;;;;;6.27;1.90;;;11.00;97.30;;;;;;5056226;28;20183;-88
2023/05/10 04:49:17;;;;;;;4.10;3.47;;;11.00;97.30;;;;;;5069060;28;20191;-89
2023/05/10 04:51:43;;;;;;;3.60;2.33;;;11.10;97.30;;;;;;5072671;28;20207;-88
2023/05/10 04:54:08;;;;;;;1.40;1.30;;;11.20;97.30;;;;;;5070161;28;20409;-88
2023/05/10 04:56:34;;;;;;;2.43;2.23;;;11.20;97.30;;;;;;5062667;28;20266;-88
2023/05/10 04:58:59;;;;;;;1.70;1.60;;;11.30;97.30;;;;;;5062100;28;20175;-88
2023/05/10 05:01:25;;;;;;;3.17;2.20;;;11.40;97.30;;;;;;5072393;28;20555;-88
2023/05/10 05:03:52;;;;;;;2.77;2.57;;;11.50;97.30;;;;;;5068833;28;20233;-88
2023/05/10 05:06:18;;;;;;;7.67;3.03;;;11.50;97.30;;;;;;5054329;28;20581;-88
2023/05/10 05:08:43;;;;;;;1.77;1.70;;;11.60;97.30;;;;;;5054363;28;20429;-88
2023/05/10 05:11:09;;;;;;;1.73;1.20;;;11.70;97.00;;;;;;5054880;28;20286;-88
2023/05/10 05:13:34;;;;;;;4.50;2.77;;;11.80;97.10;;;;;;5058134;28;20583;-88
2023/05/10 05:16:02;;;;;;;3.63;1.97;;;12.00;96.90;;;;;;5062052;28;20203;-88
2023/05/10 05:18:28;;;;;;;8.43;1.93;;;12.10;97.00;;;;;;5058773;28;20186;-88
2023/05/10 05:20:53;;;;;;;2.20;2.00;;;12.20;96.60;;;;;;5062326;28;20421;-88
2023/05/10 05:23:20;;;;;;;2.17;1.93;;;12.30;96.20;;;;;;5053801;28;20231;-88
2023/05/10 05:25:46;;;;;;;6.50;1.67;;;12.50;96.20;;;;;;5059350;28;20684;-88
2023/05/10 05:28:11;;;;;;;4.00;2.43;;;12.60;95.90;;;;;;5070163;28;20417;-88
2023/05/10 05:30:37;;;;;;;1.70;1.63;;;12.70;95.60;;;;;;5065966;28;20251;-88
2023/05/10 05:33:03;;;;;;;1.70;1.57;;;12.90;95.40;;;;;;5069764;28;20192;-87
2023/05/10 05:35:29;;;;;;;3.23;1.97;;;13.00;95.20;;;;;;5058392;28;20178;-88
2023/05/10 05:37:55;;;;;;;2.73;2.60;;;13.10;94.40;;;;;;5053590;28;20939;-87
2023/05/10 05:40:21;;;;;;;2.20;2.00;;;13.30;94.30;;;;;;5071643;28;20196;-88
2023/05/10 05:42:46;;;;;;;2.50;2.30;;;13.40;93.90;;;;;;5072222;28;20544;-88
2023/05/10 05:45:14;;;;;;;1.43;1.33;;;13.50;93.70;;;;;;5061578;28;20175;-88
2023/05/10 05:47:40;;;;;;;2.83;2.63;;;13.60;93.50;;;;;;5071308;28;20233;-89
2023/05/10 05:50:06;;;;;;;2.03;1.87;;;13.70;93.40;;;;;;5045170;28;20417;-88
2023/05/10 05:52:31;;;;;;;3.37;1.63;;;13.80;92.60;;;;;;5065200;28;20221;-87
2023/05/10 05:54:57;;;;;;;21.13;2.17;;;13.90;92.60;;;;;;5060745;28;20413;-88
2023/05/10 05:57:23;;;;;;;2.63;2.10;;;14.00;91.90;;;;;;5036589;28;20199;-88
2023/05/10 05:59:49;;;;;;;2.60;1.77;;;14.10;92.30;;;;;;5052939;28;20423;-88
2023/05/10 06:02:15;;;;;;;4.87;2.90;;;14.10;92.40;;;;;;5070007;28;20312;-88
2023/05/10 06:04:40;;;;;;;6.00;1.87;;;14.30;92.40;;;;;;5053424;28;20171;-88
2023/05/10 06:07:06;;;;;;;1.60;1.50;;;14.40;92.00;;;;;;5071239;28;20206;-88
2023/05/10 06:09:31;;;;;;;3.93;2.10;;;14.50;92.50;;;;;;5062856;28;20179;-89
2023/05/10 06:11:57;;;;;;;1.93;1.57;;;14.60;92.00;;;;;;5053640;28;20804;-88
2023/05/10 06:14:23;;;;;;;4.50;1.83;;;14.70;92.20;;;;;;5064255;28;20179;-88
2023/05/10 06:16:48;;;;;;;2.70;2.07;;;14.80;92.20;;;;;;5056585;28;20225;-89
2023/05/10 06:19:14;;;;;;;1.93;1.83;;;15.00;92.10;;;;;;5062858;28;20418;-88
2023/05/10 06:21:39;;;;;;;2.70;2.50;;;15.00;91.40;;;;;;5056934;28;20329;-88
2023/05/10 06:24:06;;;;;;;2.27;2.10;;;14.90;91.40;;;;;;5061672;28;20179;-89
2023/05/10 06:26:32;;;;;;;3.53;1.87;;;15.00;92.40;;;;;;5066095;28;20578;-88
2023/05/10 06:28:57;;;;;;;4.13;3.33;;;15.00;91.60;;;;;;5061042;28;20415;-89
2023/05/10 06:31:23;;;;;;;5.27;2.67;;;15.00;91.50;;;;;;5067698;28;20472;-88
2023/05/10 06:33:48;;;;;;;3.80;2.30;;;15.00;91.50;;;;;;5072240;28;20197;-89
2023/05/10 06:36:14;;;;;;;3.50;3.30;;;15.00;91.60;;;;;;5054894;28;20559;-89
2023/05/10 06:38:40;;;;;;;1.80;1.70;;;14.90;92.10;;;;;;5072670;28;20213;-87
2023/05/10 06:41:05;;;;;;;2.57;2.20;;;14.90;92.20;;;;;;5069319;28;20183;-88
2023/05/10 06:43:31;;;;;;;8.00;3.30;;;14.90;92.30;;;;;;5094450;28;20211;-90
2023/05/10 06:45:57;;;;;;;2.40;2.20;;;14.90;92.40;;;;;;5077978;28;20244;-88
2023/05/10 06:48:22;;;;;;;2.17;2.00;;;14.90;92.00;;;;;;5061452;28;20236;-88
2023/05/10 06:50:48;;;;;;;2.80;1.87;;;14.90;92.30;;;;;;5052564;28;20205;-88
2023/05/10 06:53:13;;;;;;;2.43;2.30;;;15.00;92.40;;;;;;5068219;28;20202;-89
2023/05/10 06:55:39;;;;;;;1.33;1.23;;;15.00;92.50;;;;;;5056317;28;20183;-88
2023/05/10 06:58:06;;;;;;;3.93;2.80;;;15.10;92.50;;;;;;5060602;28;20233;-88
2023/05/10 07:00:31;;;;;;;2.53;2.30;;;15.20;92.70;;;;;;5060203;28;20213;-88
2023/05/10 07:02:56;;;;;;;1.93;1.63;;;15.40;92.50;;;;;;5058944;28;20465;-88
2023/05/10 07:05:22;;;;;;;1.30;1.20;;;15.50;92.70;;;;;;5060695;28;20196;-89
2023/05/10 07:07:47;;;;;;;2.07;1.37;;;15.70;92.20;;;;;;5070184;28;20183;-88
2023/05/10 07:10:13;;;;;;;5.10;2.67;;;15.90;91.90;;;;;;5067311;28;20183;-89
2023/05/10 07:12:39;;;;;;;2.07;1.93;;;16.00;90.50;;;;;;5070428;28;20215;-88
2023/05/10 07:15:05;;;;;;;2.53;1.80;;;16.10;90.60;;;;;;5061032;28;20436;-88
2023/05/10 07:17:31;;;;;;;2.73;1.43;;;16.40;90.50;;;;;;5059559;28;20179;-88
2023/05/10 07:19:56;;;;;;;1.50;1.40;;;16.60;88.40;;;;;;5070428;28;20420;-88
2023/05/10 07:22:22;;;;;;;1.57;1.30;;;16.70;88.60;;;;;;5058759;28;20206;-89
2023/05/10 07:24:47;;;;;;;1.93;1.47;;;16.80;88.60;;;;;;5065711;28;20714;-89
2023/05/10 07:27:13;;;;;;;3.47;1.67;;;16.90;87.40;;;;;;5069062;28;20182;-88
2023/05/10 07:29:38;;;;;;;1.73;1.57;;;17.00;88.50;;;;;;5064816;28;20179;-88
2023/05/10 07:32:04;;;;;;;6.90;2.90;;;17.10;86.60;;;;;;5059944;28;20202;-88
2023/05/10 07:34:31;;;;;;;3.20;2.17;;;17.10;88.00;;;;;;5052166;28;20175;-88
2023/05/10 07:36:59;;;;;;;1.53;1.43;;;17.20;88.00;;;;;;5059998;28;20471;-89
2023/05/10 07:39:24;;;;;;;2.37;2.17;;;17.20;86.10;;;;;;5069924;28;20407;-88
2023/05/10 07:41:50;;;;;;;1.93;1.83;;;17.30;87.10;;;;;;5062646;28;20568;-90
2023/05/10 07:44:18;;;;;;;1.87;1.77;;;17.50;87.10;;;;;;5053042;28;20631;-87
2023/05/10 07:46:43;;;;;;;2.20;1.90;;;17.60;86.30;;;;;;5055759;28;20182;-88
2023/05/10 07:49:09;;;;;;;2.07;1.87;;;17.60;85.90;;;;;;5069887;28;20904;-89
2023/05/10 07:51:34;;;;;;;1.90;1.80;;;17.60;86.20;;;;;;5051603;28;20218;-88
2023/05/10 07:54:00;;;;;;;3.17;2.60;;;17.70;86.40;;;;;;5066686;28;20178;-88
2023/05/10 07:56:29;;;;;;;4.73;1.93;;;17.70;86.50;;;;;;5069654;28;20704;-87
2023/05/10 07:58:55;;;;;;;3.07;2.87;;;17.70;87.00;;;;;;5070200;28;20174;-88
2023/05/10 08:01:22;;;;;;;2.27;1.90;;;17.60;86.60;;;;;;5052866;28;20445;-88
2023/05/10 08:03:48;;;;;;;2.80;2.33;;;17.60;87.20;;;;;;5055023;28;20422;-88
2023/05/10 08:06:15;;;;;;;1.13;1.03;;;17.50;87.50;;;;;;5060258;28;20417;-89
2023/05/10 08:08:40;;;;;;;4.53;1.93;;;17.60;87.00;;;;;;5069751;28;20440;-88
2023/05/10 08:11:06;;;;;;;2.87;2.40;;;17.60;87.60;;;;;;5052946;28;20808;-88
2023/05/10 08:13:32;;;;;;;3.20;1.93;;;17.60;87.90;;;;;;5058298;28;20179;-88
2023/05/10 08:15:57;;;;;;;2.23;2.03;;;17.60;87.00;;;;;;5057130;28;20175;-88
2023/05/10 08:18:23;;;;;;;2.23;2.10;;;17.70;88.00;;;;;;5067002;28;20175;-88
2023/05/10 08:20:48;;;;;;;12.00;2.50;;;17.70;87.90;;;;;;5071552;28;20650;-88
2023/05/10 08:23:14;;;;;;;4.50;1.87;;;17.60;88.10;;;;;;5070508;28;20221;-88
2023/05/10 08:25:39;;;;;;;5.97;3.17;;;17.60;88.70;;;;;;5071019;28;20175;-88
2023/05/10 08:28:08;;;;;;;2.40;2.20;;;17.60;88.80;;;;;;5055502;28;20171;-88
2023/05/10 08:30:39;;;;;;;6.23;1.40;;;17.50;88.40;;;;;;5063096;28;20270;-87
2023/05/10 08:33:08;;;;;;;2.00;1.83;;;17.50;88.90;;;;;;5063510;28;20444;-88
2023/05/10 08:35:38;;;;;;;6.53;4.17;;;17.50;89.40;;;;;;5062370;28;20883;-88
2023/05/10 08:38:12;;;;;;;3.23;2.70;;;17.40;89.20;;;;;;5055647;28;20417;-88
2023/05/10 08:40:41;;;;;;;3.07;2.20;;;17.30;89.40;;;;;;5055163;28;20467;-88
2023/05/10 08:43:11;;;;;;;7.90;1.57;;;17.20;89.60;;;;;;5043916;28;20868;-88
2023/05/10 08:45:38;;;;;;;1.67;1.53;;;17.20;90.30;;;;;;5040068;28;20430;-88
2023/05/10 08:48:10;;;;;;;5.40;1.40;;;17.10;90.40;;;;;;5042771;28;20421;-88
2023/05/10 08:50:40;;;;;;;1.70;1.67;;;17.00;91.30;;;;;;5041091;28;20417;-88
2023/05/10 08:53:10;;;;;;;1.63;1.53;;;16.90;91.70;;;;;;5054670;28;20456;-88
2023/05/10 08:55:38;;;;;;;1.80;1.50;;;16.90;92.10;;;;;;5046578;28;20413;-88
2023/05/10 08:58:04;;;;;;;2.37;2.10;;;16.90;92.20;;;;;;5064102;28;20418;-89
2023/05/10 09:00:30;;;;;;;1.70;1.60;;;17.00;92.60;;;;;;5054722;28;20421;-89
2023/05/10 09:02:57;;;;;;;1.83;1.70;;;17.00;92.70;;;;;;5036610;28;20446;-86
2023/05/10 09:05:23;;;;;;;2.70;2.50;;;17.00;92.80;;;;;;5047267;28;20183;-87
2023/05/10 09:07:48;;;;;;;2.27;2.10;;;16.90;92.70;;;;;;5046129;28;20421;-89
2023/05/10 09:10:15;;;;;;;3.63;2.20;;;16.80;93.30;;;;;;5046259;28;20288;-88
2023/05/10 09:12:40;;;;;;;1.57;1.50;;;16.90;93.00;;;;;;5047611;28;20656;-88
2023/05/10 09:15:08;;;;;;;1.67;1.60;;;17.00;93.40;;;;;;5052122;28;20496;-89
2023/05/10 09:17:34;;;;;;;2.03;1.70;;;17.00;93.60;;;;;;5048083;28;20168;-87
2023/05/10 09:20:02;;;;;;;4.00;2.10;;;17.00;93.50;;;;;;5050738;28;20487;-89
2023/05/10 09:22:27;;;;;;;3.33;2.30;;;16.80;93.80;;;;;;5052004;28;20195;-89
2023/05/10 09:25:12;;;;;;;2.70;1.93;;;16.70;94.10;;;;;;5042128;28;20954;-88
2023/05/10 09:27:45;;;;;;;1.80;1.70;;;16.60;94.90;;;;;;5045669;28;20633;-88
2023/05/10 09:30:15;;;;;;;7.43;2.07;;;16.40;95.30;;;;;;5034707;28;20426;-88
2023/05/10 09:32:42;;;;;;;2.40;1.73;;;16.30;96.00;;;;;;5050494;28;20859;-88
2023/05/10 09:35:12;;;;;;;1.27;1.20;;;16.20;95.90;;;;;;5049279;28;20795;-89
2023/05/10 09:37:44;;;;;;;4.77;2.67;;;16.10;96.70;;;;;;5039028;28;20414;-89
2023/05/10 09:40:15;;;;;;;3.47;3.27;;;16.10;97.00;;;;;;5062407;28;20484;-88
2023/05/10 09:42:49;;;;;;;3.47;2.13;;;15.90;97.10;;;;;;5049806;28;20465;-88
2023/05/10 09:45:15;;;;;;;1.77;1.67;;;15.90;97.30;;;;;;5070589;28;20421;-87
2023/05/10 09:47:40;;;;;;;2.93;1.70;;;15.70;97.30;;;;;;5061461;28;20422;-89
2023/05/10 09:50:06;;;;;;;3.47;2.23;;;15.50;97.30;;;;;;5060287;28;20795;-89
2023/05/10 09:52:48;;;;;;;2.83;2.10;;;15.40;97.30;;;;;;5053252;28;20203;-88
2023/05/10 09:55:21;;;;;;;2.60;2.43;;;15.30;97.30;;;;;;5069366;28;20414;-89
2023/05/10 09:57:58;;;;;;;3.93;2.80;;;15.20;97.30;;;;;;5053504;28;20417;-88
2023/05/10 10:00:38;;;;;;;4.80;2.07;;;15.10;97.30;;;;;;5046169;28;20405;-88
2023/05/10 10:03:16;;;;;;;2.93;2.77;;;15.00;97.30;;;;;;5053237;28;20779;-89
2023/05/10 10:05:46;;;;;;;1.20;1.20;;;14.80;97.30;;;;;;5069150;28;20433;-89
2023/05/10 10:08:17;;;;;;;6.30;2.47;;;14.80;97.30;;;;;;5069069;28;20865;-88
2023/05/10 10:10:46;;;;;;;1.70;1.67;;;14.70;97.30;;;;;;5053098;28;20449;-88
2023/05/10 10:13:19;;;;;;;5.00;3.30;;;14.60;97.30;;;;;;5060994;28;20979;-89
2023/05/10 10:15:46;;;;;;;2.43;2.23;;;14.50;97.30;;;;;;5069776;28;20417;-89
2023/05/10 10:18:15;;;;;;;5.07;2.77;;;14.50;97.30;;;;;;5069122;28;20414;-89
2023/05/10 10:20:41;;;;;;;8.13;4.03;;;14.40;97.30;;;;;;5071279;28;20857;-88
2023/05/10 10:23:08;;;;;;;2.80;2.50;;;14.40;97.30;;;;;;5059292;28;20509;-88
2023/05/10 10:25:33;;;;;;;3.57;3.10;;;14.40;97.30;;;;;;5063154;28;20217;-88
2023/05/10 10:28:24;;;;;;;3.70;3.40;;;14.30;97.30;;;;;;5063216;28;20425;-89
2023/05/10 10:30:52;;;;;;;20.90;3.50;;;14.30;97.30;;;;;;5065354;28;20624;-89
2023/05/10 10:33:51;;;;;;;2.50;2.30;;;14.40;97.30;;;;;;5052799;28;20442;-88
2023/05/10 10:36:16;;;;;;;9.27;4.33;;;14.40;97.30;;;;;;5064778;28;20460;-88
2023/05/10 10:38:48;;;;;;;2.03;1.93;;;14.50;97.30;;;;;;5060815;28;20449;-88
2023/05/10 10:41:30;;;;;;;3.43;2.17;;;14.50;97.30;;;;;;5052523;28;20187;-87
2023/05/10 10:44:30;;;;;;;3.07;2.23;;;14.50;97.30;;;;;;5075589;23;20485;-92
2023/05/10 10:47:02;;;;;;;2.20;1.97;;;14.50;97.30;;;;;;5050892;28;20438;-92
2023/05/10 10:49:31;;;;;;;3.20;2.73;;;14.60;97.30;;;;;;5051659;28;20422;-93
2023/05/10 10:52:32;;;;;;;4.80;3.63;;;14.60;97.30;;;;;;5048844;28;20996;-93
2023/05/10 10:55:09;;;;;;;4.40;2.97;;;14.70;97.30;;;;;;5031257;28;20422;-93
2023/05/10 10:57:40;;;;;;;1.73;1.63;;;14.80;97.30;;;;;;5030897;28;20423;-93
2023/05/10 11:00:29;;;;;;;2.37;2.20;;;14.90;97.30;;;;;;5031851;28;20419;-92
2023/05/10 11:02:58;;;;;;;3.97;2.23;;;15.00;97.30;;;;;;5030663;28;20489;-93
2023/05/10 11:05:32;;;;;;;7.40;3.00;;;15.10;97.30;;;;;;5029678;28;20474;-93
2023/05/10 11:07:59;;;;;;;3.83;3.30;;;15.20;97.30;;;;;;5035475;28;20422;-92
2023/05/10 11:10:26;;;;;;;2.33;2.17;;;15.20;97.30;;;;;;5031232;28;20426;-92
2023/05/10 11:13:04;;;;;;;3.00;2.80;;;15.10;97.30;;;;;;5029780;28;20624;-92
2023/05/10 11:15:31;;;;;;;2.90;2.07;;;15.00;97.30;;;;;;5023363;28;20426;-92
2023/05/10 11:17:57;;;;;;;5.20;2.60;;;15.00;97.30;;;;;;5030521;28;20434;-92
2023/05/10 11:20:24;;;;;;;3.80;2.57;;;14.90;97.30;;;;;;5031839;28;20427;-93
2023/05/10 11:22:51;;;;;;;5.63;3.70;;;14.90;97.30;;;;;;5030125;28;20203;-92
2023/05/10 11:25:17;;;;;;;3.67;2.50;;;14.80;97.30;;;;;;5030877;28;20920;-92
2023/05/10 11:27:43;;;;;;;5.00;3.80;;;14.90;97.30;;;;;;5030460;28;20443;-93
2023/05/10 11:30:12;;;;;;;3.10;2.93;;;14.90;97.30;;;;;;5031045;28;20279;-93
2023/05/10 11:32:39;;;;;;;3.30;3.10;;;15.00;97.30;;;;;;5032130;28;20219;-93
2023/05/10 11:35:09;;;;;;;8.07;3.73;;;15.00;97.30;;;;;;5029867;28;20423;-92
2023/05/10 11:37:34;;;;;;;2.90;2.67;;;15.20;97.30;;;;;;5030152;28;20511;-92
2023/05/10 11:40:00;;;;;;;3.27;3.07;;;15.30;97.30;;;;;;5032361;28;20423;-92
2023/05/10 11:42:28;;;;;;;2.30;2.10;;;15.30;97.30;;;;;;5033122;28;20251;-92
2023/05/10 11:44:54;;;;;;;7.07;3.87;;;15.40;97.30;;;;;;5032615;28;20683;-92
2023/05/10 11:47:20;;;;;;;3.37;2.90;;;15.40;97.30;;;;;;5033382;28;20426;-92
2023/05/10 11:49:46;;;;;;;3.40;3.10;;;15.40;97.30;;;;;;5034915;28;20172;-93
2023/05/10 11:52:12;;;;;;;3.53;3.33;;;15.40;97.30;;;;;;5035507;28;20258;-93
2023/05/10 11:54:37;;;;;;;10.17;2.53;;;15.30;97.30;;;;;;5036691;28;20427;-93
2023/05/10 11:57:03;;;;;;;2.67;2.47;;;15.20;97.30;;;;;;5036506;28;20193;-92
2023/05/10 11:59:29;;;;;;;3.27;3.10;;;15.20;97.30;;;;;;5037390;28;20198;-92
2023/05/10 12:01:55;;;;;;;4.33;3.30;;;15.20;97.30;;;;;;5043818;28;20450;-92
2023/05/10 12:04:21;;;;;;;2.50;2.07;;;15.20;97.30;;;;;;5040365;28;20184;-92
2023/05/10 12:06:46;;;;;;;6.97;3.53;;;15.20;97.30;;;;;;5038678;28;20184;-92
2023/05/10 12:09:12;;;;;;;4.87;3.67;;;15.20;97.30;;;;;;5038998;28;20431;-93
2023/05/10 12:11:40;;;;;;;4.67;2.93;;;15.20;97.30;;;;;;5040006;28;20207;-93
2023/05/10 12:14:06;;;;;;;3.53;2.63;;;15.30;97.30;;;;;;5042127;28;20204;-93
2023/05/10 12:16:32;;;;;;;9.60;4.07;;;15.30;97.30;;;;;;5044318;28;20453;-93
2023/05/10 12:19:00;;;;;;;3.77;2.23;;;15.30;97.30;;;;;;5044605;28;20447;-93
2023/05/10 12:21:28;;;;;;;6.27;4.00;;;15.30;97.30;;;;;;5033443;28;20185;-93
2023/05/10 12:24:04;;;;;;;5.60;3.70;;;15.30;97.30;;;;;;5041191;28;20439;-93
2023/05/10 12:26:30;;;;;;;7.57;3.47;;;15.40;97.30;;;;;;5031951;28;20476;-93
2023/05/10 12:29:15;;;;;;;5.27;3.33;;;15.50;97.30;;;;;;5039620;28;20419;-93
2023/05/10 12:31:58;;;;;;;2.70;2.50;;;15.50;97.30;;;;;;5037901;28;20487;-92
2023/05/10 12:34:30;;;;;;;7.27;4.60;;;15.40;97.30;;;;;;5037466;28;20415;-93
2023/05/10 12:36:56;;;;;;;4.07;2.67;;;15.40;97.30;;;;;;5037793;28;20415;-92
2023/05/10 12:39:21;;;;;;;3.17;2.87;;;15.40;97.30;;;;;;5037486;28;20419;-93
2023/05/10 12:41:47;;;;;;;3.27;2.73;;;15.40;97.30;;;;;;5036441;28;20462;-93
2023/05/10 12:44:12;;;;;;;5.70;3.23;;;15.50;97.30;;;;;;5036136;28;20297;-93
2023/05/10 12:46:38;;;;;;;3.43;2.90;;;15.50;97.30;;;;;;5036379;28;20654;-93
2023/05/10 12:49:03;;;;;;;2.90;2.67;;;15.50;97.30;;;;;;5036221;28;20179;-93
2023/05/10 12:51:30;;;;;;;2.67;2.47;;;15.50;97.30;;;;;;5036850;28;20708;-93